createdAt,value
2019-02-25T00:01:06.820Z,103678.30
2019-02-25T00:03:38.955Z,103676.72
2019-02-25T00:06:11.090Z,103673.97
2019-02-25T00:08:43.227Z,103676.72
2019-02-25T00:11:15.352Z,103675.71
2019-02-25T00:13:47.494Z,103672.44
2019-02-25T00:16:19.618Z,103669.30
2019-02-25T00:18:51.766Z,103669.72
2019-02-25T00:21:23.885Z,103668.81
2019-02-25T00:23:56.010Z,103672.30
2019-02-25T00:26:28.139Z,103667.88
2019-02-25T00:29:00.273Z,103667.17
2019-02-25T00:31:32.401Z,103665.92
2019-02-25T00:34:05.604Z,103663.27
2019-02-25T00:36:37.731Z,103669.51
2019-02-25T00:39:09.883Z,103662.86
2019-02-25T00:41:41.989Z,103656.44
2019-02-25T00:44:14.117Z,103658.53
2019-02-25T00:46:46.249Z,103657.28
2019-02-25T00:49:18.375Z,103652.41
2019-02-25T00:51:50.499Z,103649.76
2019-02-25T00:54:22.629Z,103646.94
2019-02-25T00:56:54.766Z,103648.81
2019-02-25T00:59:26.910Z,103651.57
2019-02-25T01:01:59.043Z,103662.77
2019-02-25T01:04:31.168Z,103658.80
2019-02-25T01:07:03.300Z,103658.70
2019-02-25T01:09:35.426Z,103664.41
2019-02-25T01:12:07.551Z,103666.19
2019-02-25T01:14:39.685Z,103661.77
2019-02-25T01:17:11.815Z,103658.25
2019-02-25T01:19:43.946Z,103651.52
2019-02-25T01:22:16.075Z,103652.39
2019-02-25T01:24:48.210Z,103651.06
2019-02-25T01:27:20.334Z,103644.80
2019-02-25T01:29:52.460Z,103640.91
2019-02-25T01:32:25.659Z,103639.09
2019-02-25T01:34:57.805Z,103641.66
2019-02-25T01:37:29.930Z,103638.91
2019-02-25T01:40:02.073Z,103632.60
2019-02-25T01:42:34.376Z,103643.30
2019-02-25T01:45:06.506Z,103639.78
2019-02-25T01:47:38.636Z,103631.35
2019-02-25T01:50:10.769Z,103629.84
2019-02-25T01:52:42.907Z,103620.66
2019-02-25T01:55:15.052Z,103621.39
2019-02-25T01:57:47.453Z,103614.70
2019-02-25T02:00:19.587Z,103618.56
2019-02-25T02:02:51.715Z,103613.34
2019-02-25T02:05:24.611Z,103611.64
2019-02-25T02:07:56.951Z,103601.44
2019-02-25T02:10:29.094Z,103615.88
2019-02-25T02:13:01.215Z,103617.13
2019-02-25T02:15:33.346Z,103617.55
2019-02-25T02:18:05.474Z,103611.77
2019-02-25T02:20:37.602Z,103601.67
2019-02-25T02:23:09.729Z,103595.91
2019-02-25T02:25:41.865Z,103591.06
2019-02-25T02:28:13.989Z,103587.02
2019-02-25T02:30:46.145Z,103591.06
2019-02-25T02:33:18.282Z,103588.41
2019-02-25T02:35:50.404Z,103578.98
2019-02-25T02:38:22.530Z,103585.52
2019-02-25T02:40:54.662Z,103579.81
2019-02-25T02:43:26.790Z,103588.13
2019-02-25T02:45:59.887Z,103576.98
2019-02-25T02:48:32.009Z,103575.97
2019-02-25T02:51:04.139Z,103581.45
2019-02-25T02:53:36.267Z,103585.37
2019-02-25T02:56:08.401Z,103586.20
2019-02-25T02:58:40.525Z,103588.32
2019-02-25T03:01:12.656Z,103588.25
2019-02-25T03:03:44.790Z,103581.11
2019-02-25T03:06:16.924Z,103586.81
2019-02-25T03:08:49.059Z,103577.56
2019-02-25T03:11:22.166Z,103570.42
2019-02-25T03:13:54.302Z,103576.47
2019-02-25T03:16:26.426Z,103581.00
2019-02-25T03:18:58.555Z,103576.95
2019-02-25T03:21:30.692Z,103578.15
2019-02-25T03:24:02.817Z,103578.05
2019-02-25T03:26:34.947Z,103576.66
2019-02-25T03:29:07.088Z,103579.37
2019-02-25T03:31:39.223Z,103585.16
2019-02-25T03:34:11.348Z,103584.55
2019-02-25T03:36:43.490Z,103585.70
2019-02-25T03:39:15.613Z,103585.39
2019-02-25T03:41:47.739Z,103584.61
2019-02-25T03:44:19.880Z,103582.64
2019-02-25T03:46:52.013Z,103580.28
2019-02-25T03:49:24.138Z,103583.13
2019-02-25T03:51:56.274Z,103586.16
2019-02-25T03:54:28.404Z,103579.17
2019-02-25T03:57:00.540Z,103593.23
2019-02-25T03:59:32.675Z,103586.89
2019-02-25T04:02:04.810Z,103591.77
2019-02-25T04:04:36.937Z,103600.42
2019-02-25T04:07:09.068Z,103607.27
2019-02-25T04:09:41.201Z,103607.27
2019-02-25T04:12:13.333Z,103604.62
2019-02-25T04:14:45.471Z,103610.09
2019-02-25T04:17:17.601Z,103623.20
2019-02-25T04:19:49.731Z,103627.28
2019-02-25T04:22:21.868Z,103638.14
2019-02-25T04:24:53.995Z,103627.59
2019-02-25T04:27:26.133Z,103627.98
2019-02-25T04:29:58.272Z,103622.58
2019-02-25T04:32:30.412Z,103621.19
2019-02-25T04:35:02.568Z,103625.88
2019-02-25T04:37:34.678Z,103613.37
2019-02-25T04:40:06.810Z,103617.34
2019-02-25T04:42:38.949Z,103610.81
2019-02-25T04:45:11.065Z,103603.16
2019-02-25T04:47:43.220Z,103597.56
2019-02-25T04:50:15.356Z,103583.70
2019-02-25T04:52:47.486Z,103583.53
2019-02-25T04:55:19.613Z,103584.99
2019-02-25T04:57:51.737Z,103576.98
2019-02-25T05:00:23.864Z,103575.45
2019-02-25T05:02:55.992Z,103584.16
2019-02-25T05:05:28.120Z,103581.78
2019-02-25T05:08:00.247Z,103576.28
2019-02-25T05:10:32.379Z,103571.55
2019-02-25T05:13:04.515Z,103567.27
2019-02-25T05:15:36.648Z,103565.70
2019-02-25T05:18:08.778Z,103565.56
2019-02-25T05:20:40.904Z,103560.68
2019-02-25T05:23:13.048Z,103565.23
2019-02-25T05:25:45.174Z,103559.97
2019-02-25T05:28:17.306Z,103562.20
2019-02-25T05:30:49.438Z,103556.13
2019-02-25T05:33:21.606Z,103553.79
2019-02-25T05:35:53.981Z,103559.39
2019-02-25T05:38:26.108Z,103562.95
2019-02-25T05:40:58.239Z,103563.45
2019-02-25T05:43:30.370Z,103562.11
2019-02-25T05:46:02.501Z,103566.94
2019-02-25T05:48:34.626Z,103581.53
2019-02-25T05:51:06.753Z,103575.98
2019-02-25T05:53:38.878Z,103579.67
2019-02-25T05:56:11.007Z,103590.38
2019-02-25T05:58:43.133Z,103606.27
2019-02-25T06:01:15.277Z,103615.55
2019-02-25T06:03:47.403Z,103626.28
2019-02-25T06:06:19.550Z,103613.84
2019-02-25T06:08:51.674Z,103613.90
2019-02-25T06:11:23.804Z,103612.84
2019-02-25T06:13:55.945Z,103613.85
2019-02-25T06:16:28.083Z,103608.14
2019-02-25T06:19:00.220Z,103613.79
2019-02-25T06:21:32.349Z,103629.50
2019-02-25T06:24:04.479Z,103632.73
2019-02-25T06:26:38.609Z,103629.18
2019-02-25T06:29:10.446Z,103633.27
2019-02-25T06:31:42.581Z,103637.15
2019-02-25T06:34:14.704Z,103644.67
2019-02-25T06:36:46.845Z,103656.63
2019-02-25T06:39:18.986Z,103645.02
2019-02-25T06:41:51.130Z,103653.61
2019-02-25T06:44:23.265Z,103665.26
2019-02-25T06:46:55.448Z,103667.37
2019-02-25T06:49:27.544Z,103671.27
2019-02-25T06:51:59.681Z,103675.16
2019-02-25T06:54:31.856Z,103684.20
2019-02-25T06:57:03.957Z,103687.66
2019-02-25T06:59:36.091Z,103686.52
2019-02-25T07:02:08.223Z,103688.83
2019-02-25T07:04:40.357Z,103693.90
2019-02-25T07:07:12.489Z,103686.92
2019-02-25T07:09:44.620Z,103682.46
2019-02-25T07:12:16.752Z,103683.42
2019-02-25T07:14:48.889Z,103680.45
2019-02-25T07:17:22.658Z,103676.87
2019-02-25T07:19:54.930Z,103683.73
2019-02-25T07:22:27.060Z,103690.36
2019-02-25T07:24:59.189Z,103687.59
2019-02-25T07:27:31.324Z,103680.70
2019-02-25T07:30:03.448Z,103683.60
2019-02-25T07:32:36.541Z,103685.01
2019-02-25T07:35:08.670Z,103691.86
2019-02-25T07:37:40.811Z,103692.17
2019-02-25T07:40:12.948Z,103699.83
2019-02-25T07:42:45.069Z,103699.06
2019-02-25T07:45:17.201Z,103697.71
2019-02-25T07:47:49.350Z,103694.97
2019-02-25T07:50:21.472Z,103694.09
2019-02-25T07:52:53.600Z,103692.11
2019-02-25T07:55:25.729Z,103701.77
2019-02-25T07:57:57.867Z,103701.05
2019-02-25T08:00:29.997Z,103696.39
2019-02-25T08:03:02.134Z,103704.37
2019-02-25T08:05:34.261Z,103713.34
2019-02-25T08:08:06.393Z,103720.84
2019-02-25T08:10:38.523Z,103717.70
2019-02-25T08:13:10.652Z,103712.34
2019-02-25T08:15:42.781Z,103715.53
2019-02-25T08:18:14.926Z,103726.00
2019-02-25T08:20:47.053Z,103731.05
2019-02-25T08:23:19.183Z,103727.16
2019-02-25T08:25:52.078Z,103725.92
2019-02-25T08:28:24.224Z,103730.20
2019-02-25T08:30:56.362Z,103724.05
2019-02-25T08:33:28.491Z,103723.48
2019-02-25T08:36:00.620Z,103729.03
2019-02-25T08:38:32.760Z,103731.20
2019-02-25T08:41:04.896Z,103736.11
2019-02-25T08:43:37.037Z,103736.09
2019-02-25T08:46:09.170Z,103731.14
2019-02-25T08:48:41.307Z,103724.90
2019-02-25T08:51:13.436Z,103723.09
2019-02-25T08:53:45.566Z,103725.38
2019-02-25T08:56:18.674Z,103714.14
2019-02-25T08:58:50.806Z,103715.19
2019-02-25T09:01:22.936Z,103716.94
2019-02-25T09:03:55.080Z,103720.50
2019-02-25T09:06:27.216Z,103721.28
2019-02-25T09:08:59.365Z,103721.58
2019-02-25T09:11:31.499Z,103714.86
2019-02-25T09:14:03.629Z,103716.36
2019-02-25T09:16:35.765Z,103722.27
2019-02-25T09:19:07.909Z,103716.36
2019-02-25T09:21:40.053Z,103717.78
2019-02-25T09:24:12.184Z,103715.13
2019-02-25T09:26:44.309Z,103714.34
2019-02-25T09:29:16.451Z,103727.16
2019-02-25T09:31:48.574Z,103727.16
2019-02-25T09:34:20.709Z,103721.03
2019-02-25T09:36:52.899Z,103714.40
2019-02-25T09:39:24.995Z,103711.34
2019-02-25T09:41:57.127Z,103708.33
2019-02-25T09:44:29.255Z,103704.27
2019-02-25T09:47:01.394Z,103703.59
2019-02-25T09:49:33.522Z,103704.91
2019-02-25T09:52:05.663Z,103695.96
2019-02-25T09:54:37.786Z,103694.80
2019-02-25T09:57:09.934Z,103697.12
2019-02-25T09:59:42.062Z,103693.41
2019-02-25T10:02:14.200Z,103689.91
2019-02-25T10:04:46.334Z,103689.16
2019-02-25T10:07:18.463Z,103683.84
2019-02-25T10:09:50.597Z,103688.73
2019-02-25T10:12:22.733Z,103687.42
2019-02-25T10:14:55.833Z,103693.22
2019-02-25T10:17:27.963Z,103683.50
2019-02-25T10:20:00.144Z,103677.99
2019-02-25T10:22:32.861Z,103678.02
2019-02-25T10:25:04.998Z,103673.61
2019-02-25T10:27:37.137Z,103673.32
2019-02-25T10:30:09.271Z,103664.59
2019-02-25T10:32:41.415Z,103660.06
2019-02-25T10:35:13.534Z,103656.09
2019-02-25T10:37:45.666Z,103649.08
2019-02-25T10:40:22.158Z,103652.08
2019-02-25T10:42:51.618Z,103653.06
2019-02-25T10:45:23.747Z,103656.48
2019-02-25T10:47:58.626Z,103655.16
2019-02-25T10:50:31.086Z,103655.23
2019-02-25T10:53:03.839Z,103659.98
2019-02-25T10:55:35.941Z,103652.45
2019-02-25T10:58:08.074Z,103647.67
2019-02-25T11:00:41.656Z,103648.25
2019-02-25T11:03:15.288Z,103654.25
2019-02-25T11:05:47.861Z,103659.14
2019-02-25T11:08:19.986Z,103663.20
2019-02-25T11:10:54.924Z,103661.03
2019-02-25T11:13:27.554Z,103655.72
2019-02-25T11:16:01.025Z,103649.58
2019-02-25T11:18:33.149Z,103654.84
2019-02-25T11:21:06.110Z,103644.77
2019-02-25T11:23:39.106Z,103645.11
2019-02-25T11:26:11.226Z,103644.75
2019-02-25T11:28:43.817Z,103642.59
2019-02-25T11:31:18.151Z,103647.42
2019-02-25T11:33:49.922Z,103647.77
2019-02-25T11:36:22.165Z,103650.97
2019-02-25T11:38:54.253Z,103648.67
2019-02-25T11:41:27.442Z,103646.50
2019-02-25T11:43:59.581Z,103645.59
2019-02-25T11:46:31.701Z,103640.70
2019-02-25T11:49:03.828Z,103634.47
2019-02-25T11:51:35.963Z,103627.35
2019-02-25T11:54:08.084Z,103624.27
2019-02-25T11:56:40.221Z,103615.80
2019-02-25T11:59:12.359Z,103610.49
2019-02-25T12:01:44.481Z,103614.02
2019-02-25T12:04:16.870Z,103600.30
2019-02-25T12:06:49.002Z,103597.66
2019-02-25T12:09:21.133Z,103587.44
2019-02-25T12:11:53.262Z,103587.44
2019-02-25T12:14:25.417Z,103586.59
2019-02-25T12:16:57.537Z,103590.45
2019-02-25T12:19:29.664Z,103582.83
2019-02-25T12:22:01.789Z,103584.63
2019-02-25T12:24:33.917Z,103580.09
2019-02-25T12:27:06.052Z,103578.34
2019-02-25T12:29:38.258Z,103578.77
2019-02-25T12:32:10.382Z,103572.92
2019-02-25T12:34:42.506Z,103575.98
2019-02-25T12:37:14.633Z,103569.77
2019-02-25T12:39:46.763Z,103565.31
2019-02-25T12:42:18.891Z,103573.59
2019-02-25T12:44:51.041Z,103572.77
2019-02-25T12:47:23.172Z,103574.50
2019-02-25T12:49:55.304Z,103573.54
2019-02-25T12:52:27.429Z,103572.55
2019-02-25T12:54:59.555Z,103565.48
2019-02-25T12:57:31.680Z,103564.52
2019-02-25T13:00:03.808Z,103567.44
2019-02-25T13:02:36.006Z,103568.70
2019-02-25T13:05:08.137Z,103570.34
2019-02-25T13:07:40.262Z,103568.03
2019-02-25T13:10:12.396Z,103560.47
2019-02-25T13:12:44.535Z,103556.43
2019-02-25T13:15:16.666Z,103554.17
2019-02-25T13:17:48.785Z,103554.09
2019-02-25T13:20:20.921Z,103544.75
2019-02-25T13:22:53.060Z,103548.28
2019-02-25T13:25:25.492Z,103544.67
2019-02-25T13:27:58.765Z,103542.02
2019-02-25T13:30:31.544Z,103545.49
2019-02-25T13:33:03.675Z,103539.28
2019-02-25T13:35:35.829Z,103539.69
2019-02-25T13:38:07.959Z,103538.72
2019-02-25T13:40:40.084Z,103538.30
2019-02-25T13:43:12.207Z,103547.52
2019-02-25T13:45:45.315Z,103536.83
2019-02-25T13:48:18.424Z,103534.18
2019-02-25T13:50:50.560Z,103534.58
2019-02-25T13:53:22.859Z,103531.45
2019-02-25T13:55:54.992Z,103525.66
2019-02-25T13:58:27.132Z,103525.23
2019-02-25T14:00:59.256Z,103528.71
2019-02-25T14:03:31.381Z,103529.61
2019-02-25T14:06:03.517Z,103526.06
2019-02-25T14:08:35.650Z,103519.38
2019-02-25T14:11:07.777Z,103523.80
2019-02-25T14:13:39.911Z,103514.95
2019-02-25T14:16:12.042Z,103519.34
2019-02-25T14:18:44.173Z,103518.42
2019-02-25T14:21:16.835Z,103519.27
2019-02-25T14:23:49.100Z,103520.53
2019-02-25T14:26:21.245Z,103516.12
2019-02-25T14:28:53.373Z,103516.12
2019-02-25T14:31:27.315Z,103528.91
2019-02-25T14:33:59.614Z,103525.81
2019-02-25T14:36:31.743Z,103520.87
2019-02-25T14:39:04.943Z,103522.17
2019-02-25T14:41:38.694Z,103520.42
2019-02-25T14:44:10.834Z,103522.59
2019-02-25T14:46:42.958Z,103520.30
2019-02-25T14:49:15.091Z,103510.58
2019-02-25T14:51:47.216Z,103514.13
2019-02-25T14:54:19.617Z,103515.00
2019-02-25T14:56:52.743Z,103512.75
2019-02-25T14:59:25.567Z,103514.49
2019-02-25T15:01:59.241Z,103513.14
2019-02-25T15:04:32.889Z,103510.01
2019-02-25T15:07:06.897Z,103506.94
2019-02-25T15:09:41.278Z,103507.78
2019-02-25T15:12:13.165Z,103511.76
2019-02-25T15:14:45.300Z,103515.67
2019-02-25T15:17:17.421Z,103510.34
2019-02-25T15:19:49.551Z,103508.12
2019-02-25T15:22:22.754Z,103508.96
2019-02-25T15:24:55.063Z,103515.59
2019-02-25T15:27:28.702Z,103516.02
2019-02-25T15:30:00.827Z,103517.34
2019-02-25T15:32:35.173Z,103520.80
2019-02-25T15:35:07.309Z,103519.91
2019-02-25T15:37:40.630Z,103517.67
2019-02-25T15:40:14.582Z,103515.90
2019-02-25T15:42:46.606Z,103511.86
2019-02-25T15:45:18.742Z,103526.45
2019-02-25T15:47:51.508Z,103526.42
2019-02-25T15:52:53.340Z,103521.95
2019-02-25T17:12:21.073Z,103499.73
2019-02-25T17:14:53.377Z,103504.83
2019-02-25T17:17:26.753Z,103502.45
2019-02-25T17:19:58.891Z,103501.28
2019-02-25T17:22:31.026Z,103512.19
2019-02-25T17:25:08.193Z,103510.20
2019-02-25T17:27:38.253Z,103521.13
2019-02-25T17:30:10.415Z,103525.38
2019-02-25T17:32:44.070Z,103528.75
2019-02-25T17:35:16.388Z,103523.73
2019-02-25T17:37:48.594Z,103524.45
2019-02-25T17:40:20.754Z,103520.81
2019-02-25T17:42:54.510Z,103522.84
2019-02-25T17:45:29.319Z,103527.59
2019-02-25T17:48:03.257Z,103526.98
2019-02-25T17:50:37.032Z,103529.98
2019-02-25T17:53:09.774Z,103520.84
2019-02-25T17:55:42.245Z,103520.84
2019-02-25T17:58:14.834Z,103519.25
2019-02-25T18:00:47.811Z,103513.39
2019-02-25T18:10:43.679Z,103571.48
2019-02-25T18:13:16.591Z,103570.02
2019-02-25T18:15:49.882Z,103576.33
2019-02-25T18:18:24.561Z,103562.95
2019-02-25T18:20:56.823Z,103566.41
2019-02-25T18:23:28.958Z,103573.02
2019-02-25T18:26:01.106Z,103572.81
2019-02-25T18:28:34.898Z,103568.35
2019-02-25T18:31:09.098Z,103559.82
2019-02-25T18:33:42.026Z,103558.97
2019-02-25T18:36:14.917Z,103557.77
2019-02-25T18:38:48.593Z,103561.13
2019-02-25T18:41:21.543Z,103570.86
2019-02-25T18:43:54.777Z,103566.36
2019-02-25T18:46:27.700Z,103561.77
2019-02-25T18:49:00.794Z,103560.58
2019-02-25T18:51:35.848Z,103557.31
2019-02-25T18:54:07.867Z,103562.98
2019-02-25T18:56:40.825Z,103564.19
2019-02-25T18:59:16.211Z,103564.91
2019-02-25T19:01:49.735Z,103567.69
2019-02-25T19:04:22.649Z,103572.11
2019-02-25T19:06:54.785Z,103568.88
2019-02-25T19:09:27.692Z,103567.38
2019-02-25T19:12:00.039Z,103565.80
2019-02-25T19:14:33.186Z,103563.80
2019-02-25T19:17:06.566Z,103556.15
2019-02-25T19:19:40.563Z,103558.27
2019-02-25T19:22:15.817Z,103566.39
2019-02-25T19:24:49.271Z,103568.14
2019-02-25T19:27:25.217Z,103564.30
2019-02-25T19:30:00.238Z,103565.41
2019-02-25T19:32:31.920Z,103561.30
2019-02-25T19:35:06.762Z,103560.78
2019-02-25T19:37:40.123Z,103558.26
2019-02-25T19:40:14.247Z,103561.19
2019-02-25T19:42:51.365Z,103558.11
2019-02-25T19:45:21.859Z,103552.36
2019-02-25T19:50:54.477Z,103558.08
2019-02-25T19:53:31.481Z,103559.13
2019-02-25T19:56:18.275Z,103563.52
2019-02-25T19:58:58.070Z,103556.73
2019-02-25T20:04:42.265Z,103549.83
2019-02-25T20:12:44.802Z,103551.44
2019-02-25T20:15:18.736Z,103555.23
2019-02-25T20:17:55.106Z,103554.11
2019-02-25T20:20:26.945Z,103548.47
2019-02-25T20:22:59.948Z,103547.44
2019-02-25T20:28:52.871Z,103539.20
2019-02-25T20:34:22.580Z,103541.66
2019-02-25T20:36:55.460Z,103544.80
2019-02-25T20:42:21.410Z,103547.14
2019-02-25T20:48:08.241Z,103538.81
2019-02-25T20:50:37.075Z,103535.59
2019-02-25T20:53:11.045Z,103531.41
2019-02-25T20:55:43.283Z,103534.63
2019-02-25T20:58:18.823Z,103532.49
2019-02-25T21:00:51.996Z,103543.38
2019-02-25T21:03:25.414Z,103543.07
2019-02-25T21:05:58.362Z,103536.73
2019-02-25T21:08:30.666Z,103547.31
2019-02-25T21:11:07.992Z,103546.64
2019-02-25T21:13:38.073Z,103538.86
2019-02-25T21:16:13.181Z,103532.67
2019-02-25T21:18:48.310Z,103533.00
2019-02-25T21:21:19.230Z,103537.52
2019-02-25T21:23:51.406Z,103532.63
2019-02-25T21:26:25.465Z,103526.16
2019-02-25T21:28:58.512Z,103524.16
2019-02-25T21:31:32.252Z,103532.52
2019-02-25T21:34:04.435Z,103527.05
2019-02-25T21:36:38.161Z,103525.23
2019-02-25T21:39:12.177Z,103526.07
2019-02-25T21:41:45.861Z,103525.41
2019-02-25T21:44:19.472Z,103529.53
2019-02-25T21:46:54.037Z,103521.80
2019-02-25T21:49:27.216Z,103526.88
2019-02-25T21:52:02.480Z,103520.53
2019-02-25T21:54:34.409Z,103524.48
2019-02-25T21:57:09.730Z,103519.59
2019-02-25T21:59:41.968Z,103515.08
2019-02-25T22:02:14.104Z,103516.66
2019-02-25T22:04:48.103Z,103519.52
2019-02-25T22:07:24.447Z,103518.23
2019-02-25T22:09:53.948Z,103518.28
2019-02-25T22:12:26.879Z,103515.30
2019-02-25T22:14:59.941Z,103520.27
2019-02-25T22:17:32.069Z,103511.08
2019-02-25T22:20:04.834Z,103515.88
2019-02-25T22:22:38.072Z,103510.93
2019-02-25T22:25:11.144Z,103504.95
2019-02-25T22:27:45.593Z,103500.39
2019-02-25T22:30:18.017Z,103503.14
2019-02-25T22:32:50.166Z,103505.34
2019-02-25T22:35:24.070Z,103505.92
2019-02-25T22:37:58.085Z,103507.41
2019-02-25T22:40:32.067Z,103500.94
2019-02-25T22:43:03.927Z,103502.62
2019-02-25T22:45:38.025Z,103496.77
2019-02-25T22:48:11.657Z,103496.91
2019-02-25T22:50:43.931Z,103496.41
2019-02-25T22:53:16.063Z,103503.67
2019-02-25T22:55:52.212Z,103495.53
2019-02-25T22:58:23.715Z,103498.26
2019-02-25T23:00:58.273Z,103500.87
2019-02-25T23:03:31.600Z,103506.45
2019-02-25T23:06:03.768Z,103510.37
2019-02-25T23:08:35.931Z,103501.16
2019-02-25T23:11:10.001Z,103497.41
2019-02-25T23:13:43.300Z,103495.19
2019-02-25T23:16:18.079Z,103500.25
2019-02-25T23:18:49.570Z,103497.80
2019-02-25T23:21:24.233Z,103495.45
2019-02-25T23:23:57.685Z,103488.30
2019-02-25T23:26:29.411Z,103492.32
2019-02-25T23:29:01.638Z,103487.55
2019-02-25T23:31:33.783Z,103484.16
2019-02-25T23:34:10.035Z,103490.13
2019-02-25T23:36:43.042Z,103482.09
2019-02-25T23:39:17.140Z,103483.23
2019-02-25T23:41:48.810Z,103483.92
2019-02-25T23:44:22.198Z,103489.86
2019-02-25T23:46:57.645Z,103490.38
2019-02-25T23:49:28.722Z,103482.47
2019-02-25T23:52:00.875Z,103479.23
2019-02-25T23:54:33.022Z,103484.16
2019-02-25T23:57:05.147Z,103481.56
2019-02-25T23:59:40.413Z,103482.33
